createdAt,value
2023-02-03T00:00:14.609Z,21.37
2023-02-03T00:03:18.883Z,21.40
2023-02-03T00:06:21.635Z,21.34
2023-02-03T00:09:24.579Z,21.26
2023-02-03T00:12:27.309Z,21.25
2023-02-03T00:15:30.254Z,21.22
2023-02-03T00:18:34.393Z,21.20
2023-02-03T00:21:37.129Z,21.15
2023-02-03T00:24:39.881Z,21.07
2023-02-03T00:27:42.728Z,21.07
2023-02-03T00:30:45.593Z,20.98
2023-02-03T00:33:49.988Z,20.94
2023-02-03T00:36:52.797Z,20.90
2023-02-03T00:39:55.585Z,20.84
2023-02-03T00:42:58.367Z,20.84
2023-02-03T00:46:01.400Z,20.74
2023-02-03T00:49:05.840Z,20.74
2023-02-03T00:52:08.615Z,20.72
2023-02-03T00:55:11.364Z,20.71
2023-02-03T00:58:14.172Z,20.69
2023-02-03T01:01:16.953Z,20.69
2023-02-03T01:04:21.105Z,20.65
2023-02-03T01:07:23.844Z,20.60
2023-02-03T01:10:26.893Z,20.59
2023-02-03T01:13:29.844Z,20.55
2023-02-03T01:16:36.342Z,20.50
2023-02-03T01:19:40.657Z,20.45
2023-02-03T01:22:43.832Z,20.45
2023-02-03T01:25:46.574Z,20.42
2023-02-03T01:28:52.464Z,20.45
2023-02-03T01:31:55.357Z,20.39
2023-02-03T01:34:59.608Z,20.34
2023-02-03T01:38:02.367Z,20.29
2023-02-03T01:41:05.938Z,20.26
2023-02-03T01:44:27.464Z,20.25
2023-02-03T01:47:32.309Z,20.20
2023-02-03T01:50:38.247Z,20.19
2023-02-03T01:53:41.592Z,20.16
2023-02-03T01:56:47.191Z,20.16
2023-02-03T01:59:50.609Z,20.14
2023-02-03T02:02:53.856Z,20.10
2023-02-03T02:06:01.793Z,20.08
2023-02-03T02:09:04.779Z,20.04
2023-02-03T02:12:07.563Z,20.04
2023-02-03T02:15:10.965Z,19.99
2023-02-03T02:18:22.650Z,19.99
2023-02-03T02:21:41.755Z,19.96
2023-02-03T02:25:05.341Z,19.96
2023-02-03T02:28:23.738Z,19.94
2023-02-03T02:31:45.273Z,19.94
2023-02-03T02:34:53.183Z,19.89
2023-02-03T02:38:00.969Z,19.89
2023-02-03T02:41:06.907Z,19.90
2023-02-03T02:44:13.423Z,19.89
2023-02-03T02:47:19.192Z,19.86
2023-02-03T02:50:25.884Z,19.83
2023-02-03T02:53:33.488Z,19.82
2023-02-03T02:56:38.028Z,19.80
2023-02-03T02:59:40.840Z,19.79
2023-02-03T03:02:43.622Z,19.77
2023-02-03T03:05:50.822Z,19.78
2023-02-03T03:08:57.108Z,19.73
2023-02-03T03:12:02.791Z,19.70
2023-02-03T03:15:08.384Z,19.71
2023-02-03T03:18:14.308Z,19.67
2023-02-03T03:21:26.979Z,19.66
2023-02-03T03:24:31.841Z,19.64
2023-02-03T03:27:37.150Z,19.62
2023-02-03T03:30:40.426Z,19.62
2023-02-03T03:33:43.389Z,19.58
2023-02-03T03:36:49.546Z,19.60
2023-02-03T03:39:55.290Z,19.60
2023-02-03T03:43:01.372Z,19.57
2023-02-03T03:46:08.260Z,19.58
2023-02-03T03:49:11.877Z,19.54
2023-02-03T03:52:17.892Z,19.53
2023-02-03T03:55:21.751Z,19.54
2023-02-03T03:58:26.177Z,19.55
2023-02-03T04:01:30.629Z,19.52
2023-02-03T04:04:34.498Z,19.63
2023-02-03T04:07:42.466Z,19.69
2023-02-03T04:10:45.427Z,19.76
2023-02-03T04:13:48.213Z,19.86
2023-02-03T04:16:51.036Z,19.98
2023-02-03T04:19:53.839Z,20.10
2023-02-03T04:22:58.137Z,20.07
2023-02-03T04:26:02.091Z,20.11
2023-02-03T04:29:04.881Z,20.22
2023-02-03T04:32:07.671Z,20.20
2023-02-03T04:35:10.516Z,20.23
2023-02-03T04:38:14.672Z,20.28
2023-02-03T04:41:17.477Z,20.29
2023-02-03T04:44:20.175Z,20.33
2023-02-03T04:47:23.039Z,20.39
2023-02-03T04:50:25.984Z,20.39
2023-02-03T04:53:30.322Z,20.43
2023-02-03T04:56:33.113Z,20.46
2023-02-03T04:59:35.911Z,20.48
2023-02-03T05:02:38.669Z,20.53
2023-02-03T05:05:41.452Z,20.56
2023-02-03T05:08:45.690Z,20.50
2023-02-03T05:11:48.423Z,20.57
2023-02-03T05:14:51.153Z,20.58
2023-02-03T05:17:54.124Z,20.60
2023-02-03T05:20:56.941Z,20.63
2023-02-03T05:24:03.283Z,20.67
2023-02-03T05:27:06.108Z,20.59
2023-02-03T05:30:09.567Z,20.68
2023-02-03T05:33:12.369Z,20.71
2023-02-03T05:36:15.216Z,20.68
2023-02-03T05:39:19.328Z,20.69
2023-02-03T05:42:21.078Z,20.69
2023-02-03T05:45:23.895Z,20.65
2023-02-03T05:48:26.605Z,20.73
2023-02-03T05:51:29.494Z,20.73
2023-02-03T05:54:33.670Z,20.68
2023-02-03T05:57:36.449Z,20.78
2023-02-03T06:00:39.185Z,20.74
2023-02-03T06:03:44.412Z,20.66
2023-02-03T06:06:48.566Z,20.67
2023-02-03T06:09:52.721Z,20.69
2023-02-03T06:12:55.570Z,20.63
2023-02-03T06:15:58.403Z,20.60
2023-02-03T06:19:02.151Z,20.57
2023-02-03T06:22:04.948Z,20.57
2023-02-03T06:25:11.843Z,20.54
2023-02-03T06:28:16.375Z,20.51
2023-02-03T06:31:19.332Z,20.42
2023-02-03T06:34:22.111Z,20.39
2023-02-03T06:37:24.965Z,20.37
2023-02-03T06:40:29.513Z,20.29
2023-02-03T06:43:32.745Z,20.31
2023-02-03T06:46:35.579Z,20.24
2023-02-03T06:49:38.296Z,20.29
2023-02-03T06:52:41.047Z,20.23
2023-02-03T06:55:45.205Z,20.18
2023-02-03T06:58:48.017Z,20.17
2023-02-03T07:01:50.856Z,20.12
2023-02-03T07:04:53.660Z,20.09
2023-02-03T07:07:56.504Z,20.06
2023-02-03T07:11:00.734Z,20.05
2023-02-03T07:14:04.055Z,20.01
2023-02-03T07:17:07.186Z,19.99
2023-02-03T07:20:10.334Z,19.94
2023-02-03T07:23:13.096Z,19.95
2023-02-03T07:26:17.643Z,19.90
2023-02-03T07:29:20.448Z,19.89
2023-02-03T07:32:23.189Z,19.85
2023-02-03T07:35:25.988Z,19.82
2023-02-03T07:38:29.213Z,19.81
2023-02-03T07:41:33.340Z,19.79
2023-02-03T07:44:36.074Z,19.78
2023-02-03T07:47:39.037Z,19.75
2023-02-03T07:50:42.147Z,19.73
2023-02-03T07:53:44.864Z,19.75
2023-02-03T07:56:49.052Z,19.73
2023-02-03T07:59:51.841Z,19.71
2023-02-03T08:02:54.833Z,19.70
2023-02-03T08:05:57.644Z,19.67
2023-02-03T08:09:00.413Z,19.66
2023-02-03T08:12:04.792Z,19.65
2023-02-03T08:15:08.668Z,19.63
2023-02-03T08:18:12.726Z,19.61
2023-02-03T08:21:15.479Z,19.60
2023-02-03T08:24:18.272Z,19.58
2023-02-03T08:27:24.001Z,19.58
2023-02-03T08:30:27.507Z,19.56
2023-02-03T08:33:30.540Z,19.63
2023-02-03T08:36:33.280Z,19.67
2023-02-03T08:39:36.424Z,19.73
2023-02-03T08:42:40.604Z,19.84
2023-02-03T08:45:43.470Z,19.93
2023-02-03T08:48:46.346Z,20.07
2023-02-03T08:51:49.414Z,20.09
2023-02-03T08:54:52.399Z,20.16
2023-02-03T08:57:57.849Z,20.18
2023-02-03T09:01:06.851Z,20.19
2023-02-03T09:04:10.246Z,20.18
2023-02-03T09:07:13.519Z,20.14
2023-02-03T09:10:16.469Z,20.16
2023-02-03T09:13:20.621Z,20.12
2023-02-03T09:16:23.571Z,20.10
2023-02-03T09:19:26.542Z,20.07
2023-02-03T09:22:29.340Z,20.00
2023-02-03T09:25:32.282Z,20.03
2023-02-03T09:28:36.944Z,19.96
2023-02-03T09:31:39.827Z,19.93
2023-02-03T09:34:42.796Z,19.85
2023-02-03T09:37:45.622Z,19.83
2023-02-03T09:40:52.305Z,19.82
2023-02-03T09:44:01.257Z,19.79
2023-02-03T09:47:05.586Z,19.78
2023-02-03T09:50:13.629Z,19.76
2023-02-03T09:53:24.278Z,19.77
2023-02-03T09:56:29.101Z,19.76
2023-02-03T09:59:34.756Z,19.74
2023-02-03T10:02:50.616Z,19.68
2023-02-03T10:06:06.007Z,19.65
2023-02-03T10:09:22.098Z,19.66
2023-02-03T10:12:48.876Z,19.64
2023-02-03T10:16:05.414Z,19.63
2023-02-03T10:19:12.052Z,19.62
2023-02-03T10:22:17.734Z,19.58
2023-02-03T10:25:25.008Z,19.55
2023-02-03T10:28:28.976Z,19.54
2023-02-03T10:31:36.486Z,19.49
2023-02-03T10:34:39.791Z,19.51
2023-02-03T10:37:45.014Z,19.61
2023-02-03T10:40:48.329Z,19.69
2023-02-03T10:43:55.534Z,19.74
2023-02-03T10:47:00.868Z,19.81
2023-02-03T10:50:07.534Z,19.89
2023-02-03T10:53:24.026Z,20.03
2023-02-03T10:56:28.198Z,20.07
2023-02-03T10:59:32.090Z,20.05
2023-02-03T11:02:36.475Z,20.15
2023-02-03T11:05:39.393Z,20.17
2023-02-03T11:08:43.700Z,20.21
2023-02-03T11:11:46.544Z,20.07
2023-02-03T11:14:50.252Z,20.22
2023-02-03T11:17:54.506Z,20.03
2023-02-03T11:20:58.190Z,20.16
2023-02-03T11:24:06.078Z,20.06
2023-02-03T11:27:11.759Z,20.02
2023-02-03T11:30:17.156Z,20.20
2023-02-03T11:33:25.140Z,20.21
2023-02-03T11:36:29.180Z,20.11
2023-02-03T11:39:35.709Z,20.16
2023-02-03T11:42:39.299Z,19.99
2023-02-03T11:45:43.591Z,20.10
2023-02-03T11:48:57.738Z,20.13
2023-02-03T11:52:06.779Z,19.90
2023-02-03T11:55:17.563Z,20.21
2023-02-03T11:58:45.979Z,20.16
2023-02-03T12:01:59.044Z,20.13
2023-02-03T12:05:15.665Z,19.93
2023-02-03T12:08:23.536Z,19.84
2023-02-03T12:11:32.736Z,20.05
2023-02-03T12:14:46.544Z,20.04
2023-02-03T12:18:03.820Z,20.00
2023-02-03T12:21:15.913Z,20.14
2023-02-03T12:24:26.645Z,20.03
2023-02-03T12:27:36.581Z,20.05
2023-02-03T12:30:41.044Z,20.21
2023-02-03T12:33:46.811Z,20.02
2023-02-03T12:36:54.587Z,19.98
2023-02-03T12:39:59.876Z,19.96
2023-02-03T12:43:08.063Z,19.93
2023-02-03T12:46:12.998Z,19.83
2023-02-03T12:49:21.885Z,19.69
2023-02-03T12:52:27.888Z,19.57
2023-02-03T12:55:35.529Z,19.43
2023-02-03T12:58:40.913Z,19.37
2023-02-03T13:01:46.976Z,19.30
2023-02-03T13:04:54.298Z,19.29
2023-02-03T13:08:03.099Z,19.23
2023-02-03T13:11:15.215Z,19.82
2023-02-03T13:14:21.763Z,19.96
2023-02-03T13:17:27.847Z,20.01
2023-02-03T13:20:31.635Z,20.13
2023-02-03T13:23:36.070Z,20.31
2023-02-03T13:26:54.294Z,20.60
2023-02-03T13:30:07.231Z,20.62
2023-02-03T13:33:31.270Z,20.74
2023-02-03T13:36:49.525Z,20.49
2023-02-03T13:40:05.212Z,20.78
2023-02-03T13:43:13.098Z,20.59
2023-02-03T13:46:22.114Z,20.69
2023-02-03T13:49:26.681Z,20.75
2023-02-03T13:52:32.991Z,21.00
2023-02-03T13:55:39.559Z,20.70
2023-02-03T13:58:42.387Z,20.71
2023-02-03T14:01:45.913Z,20.68
2023-02-03T14:04:54.409Z,20.68
2023-02-03T14:07:57.389Z,20.70
2023-02-03T14:11:18.961Z,20.73
2023-02-03T14:14:40.508Z,20.70
2023-02-03T14:18:04.271Z,20.79
2023-02-03T14:21:15.796Z,20.73
2023-02-03T14:24:20.983Z,20.74
2023-02-03T14:27:25.914Z,20.78
2023-02-03T14:30:28.972Z,20.77
2023-02-03T14:33:46.688Z,20.78
2023-02-03T14:36:53.075Z,20.80
2023-02-03T14:40:13.862Z,20.83
2023-02-03T14:43:29.511Z,20.85
2023-02-03T14:46:41.842Z,20.84
2023-02-03T14:49:56.066Z,20.83
2023-02-03T14:53:05.364Z,20.87
2023-02-03T14:56:14.784Z,20.83
2023-02-03T14:59:19.842Z,20.87
2023-02-03T15:02:25.864Z,20.88
2023-02-03T15:05:39.170Z,20.85
2023-02-03T15:08:44.308Z,20.87
2023-02-03T15:11:48.016Z,20.93
2023-02-03T15:14:52.268Z,21.07
2023-02-03T15:17:55.922Z,21.28
2023-02-03T15:20:58.924Z,21.10
2023-02-03T15:24:01.794Z,21.06
2023-02-03T15:27:04.716Z,21.06
2023-02-03T15:30:19.042Z,21.06
2023-02-03T15:33:22.775Z,21.17
2023-02-03T15:36:28.981Z,21.09
2023-02-03T15:39:39.258Z,21.13
2023-02-03T15:42:44.839Z,21.10
2023-02-03T15:45:55.076Z,21.02
2023-02-03T15:49:00.683Z,21.05
2023-02-03T15:52:08.287Z,21.05
2023-02-03T15:55:17.898Z,21.08
2023-02-03T15:58:23.069Z,21.08
2023-02-03T16:01:28.276Z,21.06
2023-02-03T16:04:31.854Z,21.09
2023-02-03T16:07:34.703Z,21.02
2023-02-03T16:10:37.493Z,21.12
2023-02-03T16:13:45.588Z,21.02
2023-02-03T16:17:04.481Z,21.06
2023-02-03T16:20:23.306Z,21.05
2023-02-03T16:23:27.662Z,21.07
2023-02-03T16:26:31.334Z,21.11
2023-02-03T16:29:54.570Z,21.04
2023-02-03T16:33:21.655Z,21.13
2023-02-03T16:36:42.218Z,21.13
2023-02-03T16:40:02.584Z,21.22
2023-02-03T16:43:23.515Z,21.24
2023-02-03T16:46:44.003Z,21.20
2023-02-03T16:50:05.706Z,21.25
2023-02-03T16:53:13.210Z,21.24
2023-02-03T16:56:18.680Z,21.23
2023-02-03T16:59:21.489Z,21.28
2023-02-03T17:02:24.420Z,21.27
2023-02-03T17:05:29.038Z,21.24
2023-02-03T17:08:32.164Z,21.24
2023-02-03T17:11:34.996Z,21.16
2023-02-03T17:14:37.876Z,21.15
2023-02-03T17:17:40.761Z,21.08
2023-02-03T17:20:45.850Z,21.02
2023-02-03T17:23:48.686Z,21.03
2023-02-03T17:26:52.689Z,21.21
2023-02-03T17:29:55.512Z,21.01
2023-02-03T17:32:59.426Z,21.12
2023-02-03T17:36:05.344Z,21.12
2023-02-03T17:55:50.591Z,20.72
2023-02-03T17:58:56.199Z,20.69
2023-02-03T18:01:59.106Z,20.66
2023-02-03T18:05:03.111Z,20.64
2023-02-03T18:08:16.111Z,20.71
2023-02-03T18:11:19.923Z,20.78
2023-02-03T18:14:22.703Z,20.80
2023-02-03T18:17:25.579Z,20.89
2023-02-03T18:20:28.773Z,20.95
2023-02-03T18:23:33.612Z,20.99
2023-02-03T18:26:37.226Z,21.10
2023-02-03T18:29:41.024Z,21.04
2023-02-03T18:32:44.218Z,21.08
2023-02-03T18:35:47.014Z,21.08
2023-02-03T18:38:51.272Z,21.11
2023-02-03T18:41:54.141Z,21.19
2023-02-03T18:44:56.927Z,21.18
2023-02-03T18:47:59.720Z,21.14
2023-02-03T18:51:03.085Z,21.14
2023-02-03T18:54:07.332Z,21.15
2023-02-03T18:57:13.037Z,21.10
2023-02-03T19:00:16.251Z,21.38
2023-02-03T19:03:21.289Z,21.25
2023-02-03T19:06:24.472Z,21.19
2023-02-03T19:09:28.651Z,21.35
2023-02-03T19:12:31.545Z,21.23
2023-02-03T19:15:34.452Z,21.20
2023-02-03T19:18:37.428Z,21.36
2023-02-03T19:21:40.196Z,21.34
2023-02-03T19:24:44.521Z,21.26
2023-02-03T19:27:47.381Z,21.52
2023-02-03T19:30:53.290Z,21.48
2023-02-03T19:34:00.746Z,21.36
2023-02-03T19:37:03.541Z,21.30
2023-02-03T19:40:08.677Z,21.27
2023-02-03T19:43:11.522Z,21.31
2023-02-03T19:46:14.825Z,21.16
2023-02-03T19:49:17.695Z,21.11
2023-02-03T19:52:20.541Z,21.05
2023-02-03T19:55:30.651Z,21.02
2023-02-03T19:58:33.589Z,20.97
2023-02-03T20:01:36.662Z,20.96
2023-02-03T20:04:39.614Z,20.94
2023-02-03T20:07:42.491Z,20.99
2023-02-03T20:10:47.278Z,20.89
2023-02-03T20:13:50.887Z,20.89
2023-02-03T20:16:53.743Z,20.83
2023-02-03T20:19:56.889Z,20.75
2023-02-03T20:23:00.307Z,20.74
2023-02-03T20:26:04.909Z,20.75
2023-02-03T20:29:08.013Z,20.72
2023-02-03T20:32:11.748Z,20.76
2023-02-03T20:35:14.700Z,20.86
2023-02-03T20:38:17.757Z,20.96
2023-02-03T20:41:21.996Z,20.97
2023-02-03T20:44:24.900Z,20.97
2023-02-03T20:47:27.854Z,20.99
2023-02-03T20:50:41.458Z,21.04
2023-02-03T20:53:45.386Z,21.02
2023-02-03T20:56:49.756Z,21.17
2023-02-03T20:59:52.875Z,21.12
2023-02-03T21:03:13.667Z,21.04
2023-02-03T21:06:17.535Z,21.13
2023-02-03T21:09:22.105Z,21.15
2023-02-03T21:12:26.946Z,21.15
2023-02-03T21:15:30.845Z,21.19
2023-02-03T21:18:39.625Z,21.22
2023-02-03T21:21:44.057Z,21.19
2023-02-03T21:24:53.961Z,21.40
2023-02-03T21:27:58.532Z,21.33
2023-02-03T21:31:01.511Z,21.32
2023-02-03T21:34:05.736Z,21.37
2023-02-03T21:37:09.401Z,21.30
2023-02-03T21:40:18.414Z,21.28
2023-02-03T21:43:23.955Z,21.28
2023-02-03T21:46:27.416Z,21.27
2023-02-03T21:49:30.307Z,21.43
2023-02-03T21:52:39.673Z,21.57
2023-02-03T21:55:43.439Z,21.40
2023-02-03T21:58:48.712Z,21.31
2023-02-03T22:01:53.122Z,21.34
2023-02-03T22:04:56.101Z,21.31
2023-02-03T22:07:58.920Z,21.40
2023-02-03T22:11:01.769Z,21.46
2023-02-03T22:14:06.066Z,21.34
2023-02-03T22:17:08.824Z,21.33
2023-02-03T22:20:12.371Z,21.33
2023-02-03T22:23:15.233Z,21.33
2023-02-03T22:26:18.573Z,21.30
2023-02-03T22:29:23.180Z,21.55
2023-02-03T22:32:26.075Z,21.36
2023-02-03T22:35:29.300Z,21.34
2023-02-03T22:38:32.159Z,21.33
2023-02-03T22:41:35.026Z,21.39
2023-02-03T22:44:39.234Z,21.42
2023-02-03T22:47:42.046Z,21.38
2023-02-03T22:50:44.856Z,21.37
2023-02-03T22:53:47.658Z,21.44
2023-02-03T22:56:50.539Z,21.45
2023-02-03T22:59:54.783Z,21.41
2023-02-03T23:02:57.727Z,21.42
2023-02-03T23:06:00.661Z,21.45
2023-02-03T23:09:03.466Z,21.45
2023-02-03T23:12:06.777Z,21.48
2023-02-03T23:15:11.780Z,21.42
2023-02-03T23:18:14.633Z,21.45
2023-02-03T23:21:18.272Z,21.50
2023-02-03T23:24:21.163Z,21.45
2023-02-03T23:27:24.006Z,21.48
2023-02-03T23:30:28.454Z,21.49
2023-02-03T23:33:31.444Z,21.53
2023-02-03T23:36:33.591Z,21.47
2023-02-03T23:39:36.393Z,21.50
2023-02-03T23:42:39.139Z,21.50
2023-02-03T23:45:43.361Z,21.52
2023-02-03T23:48:46.231Z,21.49
2023-02-03T23:51:49.065Z,21.51
2023-02-03T23:54:52.009Z,21.52
2023-02-03T23:57:54.878Z,21.50
